createdAt,value
2023-05-06T00:01:52.899Z,9.23
2023-05-06T00:08:14.997Z,9.13
2023-05-06T00:11:27.904Z,7.03
2023-05-06T00:14:11.328Z,12.85
2023-05-06T00:17:08.624Z,4.65
2023-05-06T00:20:13.372Z,10.75
2023-05-06T00:23:08.478Z,7.38
2023-05-06T00:26:05.191Z,9.23
2023-05-06T00:28:52.113Z,10.32
2023-05-06T00:32:00.978Z,4.93
2023-05-06T00:34:38.266Z,5.65
2023-05-06T00:37:36.159Z,11.57
2023-05-06T00:40:17.677Z,9.55
2023-05-06T00:42:59.631Z,7.28
2023-05-06T00:45:36.311Z,7.87
2023-05-06T00:48:14.568Z,6.22
2023-05-06T00:50:51.646Z,7.93
2023-05-06T00:53:31.480Z,4.75
2023-05-06T00:56:20.900Z,10.63
2023-05-06T01:01:40.893Z,6.32
2023-05-06T01:04:11.998Z,6.40
2023-05-06T01:10:20.735Z,7.47
2023-05-06T01:13:33.479Z,11.27
2023-05-06T01:16:13.728Z,10.18
2023-05-06T01:18:54.558Z,4.78
2023-05-06T01:21:22.524Z,8.25
2023-05-06T01:23:58.505Z,7.28
2023-05-06T01:26:26.570Z,7.90
2023-05-06T01:28:54.664Z,12.30
2023-05-06T01:31:33.194Z,11.05
2023-05-06T01:34:39.095Z,7.35
2023-05-06T01:37:51.906Z,8.50
2023-05-06T01:40:21.778Z,7.80
2023-05-06T01:42:50.982Z,6.78
2023-05-06T01:45:18.833Z,11.80
2023-05-06T01:47:47.258Z,11.23
2023-05-06T01:50:15.492Z,7.68
2023-05-06T01:52:42.897Z,9.93
2023-05-06T01:55:10.546Z,8.18
2023-05-06T01:57:38.121Z,8.48
2023-05-06T02:00:07.065Z,8.20
2023-05-06T02:02:39.724Z,8.32
2023-05-06T02:05:08.518Z,9.23
2023-05-06T02:07:41.103Z,9.15
2023-05-06T02:10:09.190Z,8.95
2023-05-06T02:12:39.969Z,9.63
2023-05-06T02:15:08.544Z,9.25
2023-05-06T02:17:37.598Z,8.18
2023-05-06T02:20:06.349Z,11.38
2023-05-06T02:22:37.000Z,9.70
2023-05-06T02:25:14.154Z,7.00
2023-05-06T02:27:42.324Z,8.30
2023-05-06T02:30:10.035Z,9.02
2023-05-06T02:32:38.020Z,8.77
2023-05-06T02:35:07.388Z,6.50
2023-05-06T02:37:41.871Z,10.05
2023-05-06T02:40:12.807Z,11.95
2023-05-06T02:42:40.321Z,12.07
2023-05-06T02:45:08.793Z,9.98
2023-05-06T02:47:36.771Z,10.02
2023-05-06T02:50:05.400Z,5.32
2023-05-06T02:52:34.195Z,7.20
2023-05-06T02:55:04.513Z,9.25
2023-05-06T03:02:33.236Z,13.05
2023-05-06T03:05:01.534Z,8.00
2023-05-06T03:07:28.932Z,9.25
2023-05-06T03:09:56.827Z,12.55
2023-05-06T03:12:24.678Z,7.72
2023-05-06T03:14:52.885Z,9.45
2023-05-06T03:17:20.455Z,11.02
2023-05-06T03:19:50.556Z,10.70
2023-05-06T03:22:18.376Z,7.95
2023-05-06T03:24:52.838Z,9.60
2023-05-06T03:27:21.117Z,11.23
2023-05-06T03:29:53.500Z,10.32
2023-05-06T03:32:23.381Z,7.85
2023-05-06T03:34:52.011Z,9.05
2023-05-06T03:37:21.987Z,7.50
2023-05-06T03:39:53.759Z,7.53
2023-05-06T03:42:25.172Z,8.95
2023-05-06T03:44:52.674Z,10.82
2023-05-06T03:47:20.390Z,6.60
2023-05-06T03:49:47.896Z,8.43
2023-05-06T03:52:15.329Z,10.45
2023-05-06T03:54:43.369Z,8.48
2023-05-06T03:57:11.189Z,10.77
2023-05-06T03:59:38.872Z,9.63
2023-05-06T04:02:07.525Z,8.63
2023-05-06T04:04:37.281Z,6.18
2023-05-06T04:07:05.089Z,7.90
2023-05-06T04:09:34.063Z,13.13
2023-05-06T04:12:09.066Z,6.80
2023-05-06T04:14:37.524Z,9.75
2023-05-06T04:17:05.657Z,9.98
2023-05-06T04:19:34.069Z,9.80
2023-05-06T04:22:02.890Z,6.18
2023-05-06T04:24:31.517Z,9.07
2023-05-06T04:27:00.069Z,8.10
2023-05-06T04:29:28.449Z,10.82
2023-05-06T04:32:00.550Z,9.57
2023-05-06T04:37:01.651Z,8.85
2023-05-06T04:40:04.612Z,9.75
2023-05-06T04:42:36.556Z,12.10
2023-05-06T04:45:11.950Z,9.15
2023-05-06T04:47:41.546Z,7.75
2023-05-06T04:50:09.864Z,5.93
2023-05-06T04:52:37.778Z,8.75
2023-05-06T04:55:06.233Z,12.38
2023-05-06T04:57:35.804Z,10.38
2023-05-06T05:00:04.778Z,7.55
2023-05-06T05:02:34.270Z,10.98
2023-05-06T05:05:02.120Z,13.13
2023-05-06T05:07:30.330Z,13.40
2023-05-06T05:09:57.900Z,9.95
2023-05-06T05:12:25.600Z,8.60
2023-05-06T05:14:53.843Z,10.40
2023-05-06T05:17:21.997Z,8.05
2023-05-06T05:19:50.465Z,7.38
2023-05-06T05:22:18.640Z,6.75
2023-05-06T05:24:45.856Z,8.52
2023-05-06T05:27:13.298Z,9.77
2023-05-06T05:29:41.452Z,7.13
2023-05-06T05:32:09.845Z,9.65
2023-05-06T05:34:37.158Z,11.82
2023-05-06T05:37:05.241Z,9.52
2023-05-06T05:39:34.268Z,7.70
2023-05-06T05:42:02.956Z,8.40
2023-05-06T05:44:31.089Z,8.23
2023-05-06T05:46:58.578Z,8.60
2023-05-06T05:49:26.290Z,5.97
2023-05-06T05:51:55.050Z,9.68
2023-05-06T05:54:23.416Z,8.88
2023-05-06T05:56:51.632Z,14.63
2023-05-06T05:59:19.968Z,8.27
2023-05-06T06:01:49.881Z,7.22
2023-05-06T06:04:17.332Z,9.35
2023-05-06T06:06:44.855Z,11.45
2023-05-06T06:09:12.414Z,8.43
2023-05-06T06:11:41.055Z,9.77
2023-05-06T06:14:09.244Z,16.90
2023-05-06T06:16:37.349Z,8.57
2023-05-06T06:19:04.817Z,6.88
2023-05-06T06:21:34.449Z,10.20
2023-05-06T06:24:02.697Z,9.93
2023-05-06T06:26:30.808Z,8.82
2023-05-06T06:28:59.839Z,9.85
2023-05-06T06:31:27.375Z,10.35
2023-05-06T06:33:55.286Z,6.97
2023-05-06T06:36:23.082Z,8.70
2023-05-06T06:38:50.482Z,7.07
2023-05-06T06:41:17.835Z,6.53
2023-05-06T06:43:45.362Z,7.85
2023-05-06T06:46:19.795Z,8.77
2023-05-06T06:48:47.274Z,6.22
2023-05-06T06:51:14.434Z,8.98
2023-05-06T06:53:43.170Z,7.60
2023-05-06T06:56:14.209Z,9.65
2023-05-06T06:58:42.937Z,7.63
2023-05-06T07:01:21.664Z,11.10
2023-05-06T07:03:49.034Z,8.02
2023-05-06T07:06:16.263Z,8.57
2023-05-06T07:08:43.516Z,9.15
2023-05-06T07:11:10.839Z,5.53
2023-05-06T07:13:41.433Z,7.45
2023-05-06T07:16:10.080Z,6.90
2023-05-06T07:18:38.174Z,7.55
2023-05-06T07:21:05.627Z,8.20
2023-05-06T07:23:36.242Z,8.48
2023-05-06T07:26:07.753Z,7.93
2023-05-06T07:28:35.666Z,5.82
2023-05-06T07:31:03.110Z,10.52
2023-05-06T07:33:30.346Z,11.30
2023-05-06T07:35:57.651Z,9.48
2023-05-06T07:38:25.434Z,7.55
2023-05-06T07:40:53.284Z,6.78
2023-05-06T07:43:22.056Z,12.18
2023-05-06T07:45:49.571Z,6.75
2023-05-06T07:48:19.759Z,8.20
2023-05-06T07:50:50.634Z,8.40
2023-05-06T07:53:18.273Z,9.85
2023-05-06T07:55:46.237Z,10.38
2023-05-06T07:58:14.775Z,5.38
2023-05-06T08:00:45.223Z,8.68
2023-05-06T08:03:12.622Z,6.90
2023-05-06T08:05:40.338Z,9.63
2023-05-06T08:08:07.855Z,5.05
2023-05-06T08:10:35.515Z,9.93
2023-05-06T08:13:06.729Z,6.57
2023-05-06T08:15:35.530Z,7.57
2023-05-06T08:18:13.695Z,9.70
2023-05-06T08:20:45.903Z,11.00
2023-05-06T08:23:17.420Z,7.60
2023-05-06T08:25:45.650Z,7.65
2023-05-06T08:28:12.990Z,8.13
2023-05-06T08:30:45.100Z,10.05
2023-05-06T08:33:12.457Z,8.45
2023-05-06T08:35:40.381Z,9.95
2023-05-06T08:38:07.997Z,11.60
2023-05-06T08:40:35.407Z,7.78
2023-05-06T08:43:04.032Z,7.70
2023-05-06T08:45:35.680Z,9.93
2023-05-06T08:48:04.029Z,11.05
2023-05-06T08:50:31.564Z,11.25
2023-05-06T08:53:01.707Z,7.93
2023-05-06T08:57:57.623Z,8.82
2023-05-06T09:00:25.399Z,6.95
2023-05-06T09:02:52.803Z,7.38
2023-05-06T09:05:22.411Z,9.38
2023-05-06T09:07:49.957Z,6.95
2023-05-06T09:10:19.307Z,7.55
2023-05-06T09:12:47.077Z,8.88
2023-05-06T09:15:15.398Z,6.22
2023-05-06T09:17:42.620Z,8.20
2023-05-06T09:20:12.668Z,7.05
2023-05-06T09:22:40.990Z,8.23
2023-05-06T09:25:08.871Z,8.68
2023-05-06T09:27:37.085Z,6.25
2023-05-06T09:30:09.049Z,6.28
2023-05-06T09:32:39.271Z,7.30
2023-05-06T09:35:08.108Z,5.78
2023-05-06T09:37:36.048Z,5.47
2023-05-06T09:40:06.786Z,6.57
2023-05-06T09:42:37.346Z,5.05
2023-05-06T09:45:07.259Z,5.57
2023-05-06T09:47:38.754Z,5.55
2023-05-06T09:50:07.097Z,5.18
2023-05-06T09:52:39.610Z,6.55
2023-05-06T09:55:10.041Z,6.13
2023-05-06T09:57:37.921Z,5.28
2023-05-06T10:00:08.953Z,7.05
2023-05-06T10:02:43.323Z,4.28
2023-05-06T10:05:11.396Z,4.47
2023-05-06T10:07:40.263Z,5.80
2023-05-06T10:10:10.092Z,4.90
2023-05-06T10:12:37.885Z,4.10
2023-05-06T10:15:05.785Z,3.75
2023-05-06T10:17:33.721Z,6.75
2023-05-06T10:20:04.139Z,5.05
2023-05-06T10:23:09.134Z,3.85
2023-05-06T10:25:37.577Z,4.95
2023-05-06T10:28:07.094Z,5.95
2023-05-06T10:30:38.356Z,5.88
2023-05-06T10:33:08.662Z,4.70
2023-05-06T10:35:42.661Z,4.68
2023-05-06T10:38:21.220Z,7.10
2023-05-06T10:40:49.447Z,6.85
2023-05-06T10:43:33.322Z,7.07
2023-05-06T10:46:12.384Z,4.78
2023-05-06T10:49:00.196Z,4.68
2023-05-06T10:51:28.478Z,3.80
2023-05-06T10:54:08.248Z,4.25
2023-05-06T10:56:36.420Z,7.45
2023-05-06T10:59:10.774Z,5.90
2023-05-06T11:01:43.092Z,5.30
2023-05-06T11:04:14.896Z,5.85
2023-05-06T11:06:57.026Z,6.97
2023-05-06T11:09:28.240Z,4.90
2023-05-06T11:12:04.748Z,5.43
2023-05-06T11:14:39.226Z,7.50
2023-05-06T11:17:11.475Z,5.50
2023-05-06T11:19:40.752Z,4.70
2023-05-06T11:22:08.773Z,3.27
2023-05-06T11:24:41.186Z,5.43
2023-05-06T11:27:09.635Z,3.75
2023-05-06T11:29:38.098Z,5.95
2023-05-06T11:32:18.464Z,3.92
2023-05-06T11:34:46.382Z,3.65
2023-05-06T11:37:13.610Z,4.22
2023-05-06T11:39:49.433Z,6.15
2023-05-06T11:42:24.097Z,5.38
2023-05-06T11:44:53.964Z,5.20
2023-05-06T11:47:25.306Z,5.70
2023-05-06T11:49:57.138Z,3.70
2023-05-06T11:52:24.636Z,4.97
2023-05-06T11:54:53.523Z,3.15
2023-05-06T11:57:21.346Z,3.53
2023-05-06T11:59:53.412Z,2.90
2023-05-06T12:02:21.336Z,4.13
2023-05-06T12:04:50.293Z,2.95
2023-05-06T12:07:17.686Z,3.17
2023-05-06T12:09:48.085Z,4.32
2023-05-06T12:12:17.231Z,2.92
2023-05-06T12:14:44.491Z,3.10
2023-05-06T12:17:12.463Z,3.40
2023-05-06T12:19:39.804Z,3.38
2023-05-06T12:22:16.587Z,3.25
2023-05-06T12:24:45.475Z,6.18
2023-05-06T12:27:12.677Z,5.30
2023-05-06T12:29:40.511Z,3.17
2023-05-06T12:32:11.643Z,4.20
2023-05-06T12:34:42.180Z,2.65
2023-05-06T12:37:09.312Z,5.28
2023-05-06T12:39:38.336Z,2.78
2023-05-06T12:42:06.078Z,4.75
2023-05-06T12:44:40.047Z,3.15
2023-05-06T12:47:09.329Z,3.28
2023-05-06T12:49:48.915Z,4.05
2023-05-06T12:52:16.530Z,2.60
2023-05-06T12:54:44.255Z,5.03
2023-05-06T12:57:11.664Z,3.20
2023-05-06T12:59:39.200Z,7.50
2023-05-06T13:02:06.828Z,4.20
2023-05-06T13:04:37.167Z,2.85
2023-05-06T13:07:07.589Z,2.70
2023-05-06T13:09:34.899Z,4.85
2023-05-06T13:12:02.962Z,3.15
2023-05-06T13:14:30.401Z,2.92
2023-05-06T13:17:00.444Z,2.10
2023-05-06T13:22:01.857Z,2.13
2023-05-06T13:24:30.051Z,2.35
2023-05-06T13:26:59.631Z,2.55
2023-05-06T13:29:27.285Z,3.78
2023-05-06T13:31:54.789Z,3.85
2023-05-06T13:34:22.705Z,2.15
2023-05-06T13:36:50.952Z,3.05
2023-05-06T13:39:18.437Z,3.17
2023-05-06T13:41:50.274Z,4.40
2023-05-06T13:44:18.741Z,2.55
2023-05-06T13:46:47.408Z,2.25
2023-05-06T13:49:14.913Z,2.38
2023-05-06T13:51:42.072Z,2.88
2023-05-06T13:54:09.525Z,3.15
2023-05-06T13:56:36.894Z,2.50
2023-05-06T13:59:05.236Z,1.75
2023-05-06T14:01:32.934Z,1.42
2023-05-06T14:04:00.382Z,1.60
2023-05-06T14:06:27.882Z,3.35
2023-05-06T14:08:56.223Z,3.90
2023-05-06T14:11:23.572Z,2.53
2023-05-06T14:13:51.141Z,1.67
2023-05-06T14:16:18.540Z,1.65
2023-05-06T14:18:46.153Z,2.53
2023-05-06T14:21:13.509Z,1.35
2023-05-06T14:23:43.491Z,1.83
2023-05-06T14:26:10.921Z,1.60
2023-05-06T14:28:38.282Z,2.10
2023-05-06T14:31:05.743Z,3.45
2023-05-06T14:33:33.156Z,3.05
2023-05-06T14:36:05.978Z,1.80
2023-05-06T14:38:33.743Z,2.80
2023-05-06T14:41:01.298Z,2.63
2023-05-06T14:43:28.654Z,2.22
2023-05-06T14:45:55.805Z,4.38
2023-05-06T14:48:25.542Z,2.95
2023-05-06T14:50:53.253Z,4.22
2023-05-06T14:53:20.681Z,3.17
2023-05-06T14:55:49.099Z,2.92
2023-05-06T14:58:16.375Z,3.00
2023-05-06T15:00:44.080Z,2.95
2023-05-06T15:03:11.746Z,3.72
2023-05-06T15:05:39.044Z,3.08
2023-05-06T15:08:06.404Z,3.92
2023-05-06T15:10:36.374Z,3.20
2023-05-06T15:13:09.963Z,3.40
2023-05-06T15:15:37.683Z,3.50
2023-05-06T15:18:05.313Z,3.50
2023-05-06T15:20:34.999Z,2.97
2023-05-06T15:23:04.422Z,2.67
2023-05-06T15:25:36.051Z,3.60
2023-05-06T15:28:07.481Z,4.85
2023-05-06T15:30:38.029Z,3.80
2023-05-06T15:33:05.792Z,3.17
2023-05-06T15:35:33.677Z,3.13
2023-05-06T15:38:03.624Z,3.00
2023-05-06T15:40:31.565Z,2.97
2023-05-06T15:42:59.769Z,4.55
2023-05-06T15:45:27.372Z,3.53
2023-05-06T15:47:55.695Z,3.95
2023-05-06T15:50:32.811Z,3.13
2023-05-06T15:53:01.753Z,3.85
2023-05-06T15:55:29.310Z,3.10
2023-05-06T15:57:59.129Z,3.95
2023-05-06T16:00:28.151Z,4.57
2023-05-06T16:02:55.831Z,2.72
2023-05-06T16:05:23.112Z,3.80
2023-05-06T16:07:50.565Z,4.22
2023-05-06T16:10:17.834Z,3.05
2023-05-06T16:12:45.065Z,3.28
2023-05-06T16:15:12.247Z,2.53
2023-05-06T16:17:41.124Z,2.20
2023-05-06T16:20:13.249Z,3.83
2023-05-06T16:22:40.954Z,3.15
2023-05-06T16:25:09.463Z,2.38
2023-05-06T16:27:36.706Z,2.83
2023-05-06T16:30:09.186Z,2.58
2023-05-06T16:32:36.967Z,2.33
2023-05-06T16:35:05.047Z,4.90
2023-05-06T16:37:34.967Z,3.17
2023-05-06T16:40:03.101Z,2.92
2023-05-06T16:42:30.284Z,3.22
2023-05-06T16:44:57.584Z,2.47
2023-05-06T16:47:25.082Z,2.50
2023-05-06T16:49:52.794Z,3.00
2023-05-06T16:52:20.326Z,2.78
2023-05-06T16:54:47.934Z,3.13
2023-05-06T16:57:15.319Z,3.70
2023-05-06T16:59:43.147Z,5.43
2023-05-06T17:02:10.789Z,4.90
2023-05-06T17:04:38.294Z,3.70
2023-05-06T17:07:05.999Z,4.22
2023-05-06T17:09:36.463Z,4.70
2023-05-06T17:12:04.348Z,6.25
2023-05-06T17:14:31.987Z,5.25
2023-05-06T17:17:03.785Z,4.13
2023-05-06T17:19:31.874Z,6.03
2023-05-06T17:21:59.870Z,7.43
2023-05-06T17:24:27.295Z,7.82
2023-05-06T17:26:54.404Z,5.00
2023-05-06T17:29:22.302Z,6.13
2023-05-06T17:31:50.261Z,7.38
2023-05-06T17:34:18.282Z,6.38
2023-05-06T17:36:46.451Z,8.10
2023-05-06T17:39:14.067Z,7.15
2023-05-06T17:41:41.266Z,8.10
2023-05-06T17:44:08.490Z,6.93
2023-05-06T17:46:35.905Z,6.20
2023-05-06T17:49:03.728Z,5.72
2023-05-06T17:51:31.254Z,6.95
2023-05-06T17:53:58.597Z,6.40
2023-05-06T17:56:26.059Z,5.55
2023-05-06T17:58:53.585Z,10.85
2023-05-06T18:01:21.031Z,10.80
2023-05-06T18:03:48.690Z,8.27
2023-05-06T18:06:16.651Z,8.50
2023-05-06T18:08:44.839Z,8.10
2023-05-06T18:11:12.083Z,11.20
2023-05-06T18:13:39.346Z,10.30
2023-05-06T18:16:07.044Z,24.98
2023-05-06T18:18:34.559Z,12.00
2023-05-06T18:21:02.776Z,9.40
2023-05-06T18:23:30.483Z,8.52
2023-05-06T18:25:57.902Z,9.73
2023-05-06T18:28:26.063Z,8.43
2023-05-06T18:30:53.427Z,9.27
2023-05-06T18:33:20.818Z,7.05
2023-05-06T18:35:48.485Z,9.55
2023-05-06T18:38:16.301Z,7.78
2023-05-06T18:40:44.231Z,6.38
2023-05-06T18:43:11.743Z,6.88
2023-05-06T18:45:39.260Z,7.60
2023-05-06T18:48:06.752Z,5.65
2023-05-06T18:50:36.044Z,8.48
2023-05-06T18:53:04.128Z,7.17
2023-05-06T18:55:31.557Z,5.57
2023-05-06T18:57:58.807Z,6.32
2023-05-06T19:00:28.539Z,6.13
2023-05-06T19:02:59.296Z,3.92
2023-05-06T19:05:26.794Z,5.85
2023-05-06T19:07:54.286Z,8.88
2023-05-06T19:10:22.060Z,9.82
2023-05-06T19:12:49.642Z,10.43
2023-05-06T19:15:19.129Z,5.05
2023-05-06T19:17:47.596Z,9.52
2023-05-06T19:20:15.162Z,4.43
2023-05-06T19:22:43.243Z,6.07
2023-05-06T19:25:11.472Z,6.30
2023-05-06T19:27:38.965Z,5.70
2023-05-06T19:30:09.151Z,7.07
2023-05-06T19:35:09.413Z,5.68
2023-05-06T19:37:43.337Z,3.75
2023-05-06T19:40:11.477Z,5.38
2023-05-06T19:42:38.937Z,7.05
2023-05-06T19:45:10.110Z,5.68
2023-05-06T19:47:37.737Z,6.30
2023-05-06T19:50:06.357Z,6.88
2023-05-06T19:52:36.848Z,6.53
2023-05-06T19:55:10.593Z,7.75
2023-05-06T19:57:38.437Z,5.55
2023-05-06T20:00:10.377Z,7.47
2023-05-06T20:02:38.845Z,6.32
2023-05-06T20:05:06.821Z,5.78
2023-05-06T20:07:34.856Z,6.55
2023-05-06T20:10:02.867Z,5.80
2023-05-06T20:12:30.761Z,8.80
2023-05-06T20:14:58.044Z,6.05
2023-05-06T20:17:25.641Z,6.25
2023-05-06T20:19:54.014Z,7.57
2023-05-06T20:22:21.428Z,7.38
2023-05-06T20:24:48.826Z,5.95
2023-05-06T20:27:16.717Z,8.40
2023-05-06T20:29:44.332Z,6.50
2023-05-06T20:32:12.172Z,7.18
2023-05-06T20:34:39.645Z,7.15
2023-05-06T20:37:07.198Z,6.43
2023-05-06T20:39:35.204Z,8.55
2023-05-06T20:42:03.041Z,8.95
2023-05-06T20:44:30.522Z,6.28
2023-05-06T20:46:58.036Z,6.35
2023-05-06T20:49:25.530Z,13.05
2023-05-06T20:51:53.127Z,7.35
2023-05-06T20:54:20.669Z,6.25
2023-05-06T20:56:48.464Z,8.95
2023-05-06T20:59:15.830Z,6.55
2023-05-06T21:01:44.977Z,9.15
2023-05-06T21:04:12.354Z,10.70
2023-05-06T21:06:39.890Z,9.48
2023-05-06T21:09:08.376Z,8.63
2023-05-06T21:11:36.182Z,6.88
2023-05-06T21:14:06.663Z,7.00
2023-05-06T21:16:39.183Z,7.68
2023-05-06T21:19:06.714Z,9.27
2023-05-06T21:21:35.549Z,7.30
2023-05-06T21:24:03.799Z,7.35
2023-05-06T21:26:32.738Z,8.45
2023-05-06T21:29:00.004Z,10.32
2023-05-06T21:31:27.677Z,10.15
2023-05-06T21:33:56.814Z,10.48
2023-05-06T21:36:24.214Z,6.60
2023-05-06T21:39:04.012Z,10.38
2023-05-06T21:41:31.690Z,10.15
2023-05-06T21:43:58.802Z,8.23
2023-05-06T21:46:26.697Z,11.90
2023-05-06T21:48:54.042Z,10.18
2023-05-06T21:51:21.403Z,8.27
2023-05-06T21:53:51.986Z,10.45
2023-05-06T21:56:20.641Z,9.45
2023-05-06T21:58:48.106Z,7.90
2023-05-06T22:01:16.186Z,9.82
2023-05-06T22:03:44.882Z,10.80
2023-05-06T22:06:12.682Z,9.63
2023-05-06T22:08:40.817Z,10.95
2023-05-06T22:11:08.097Z,11.85
2023-05-06T22:13:35.680Z,10.10
2023-05-06T22:16:03.834Z,13.45
2023-05-06T22:18:32.736Z,13.10
2023-05-06T22:21:00.062Z,10.65
2023-05-06T22:23:28.502Z,11.18
2023-05-06T22:25:56.337Z,10.98
2023-05-06T22:28:24.784Z,11.57
2023-05-06T22:30:52.227Z,13.43
2023-05-06T22:33:19.536Z,11.45
2023-05-06T22:35:46.685Z,12.30
2023-05-06T22:38:14.433Z,10.23
2023-05-06T22:40:41.792Z,10.15
2023-05-06T22:43:08.950Z,12.25
2023-05-06T22:45:36.489Z,14.63
2023-05-06T22:48:06.381Z,12.40
2023-05-06T22:50:34.681Z,9.77
2023-05-06T22:53:10.379Z,11.00
2023-05-06T22:55:42.144Z,11.25
2023-05-06T22:58:09.635Z,11.25
2023-05-06T23:00:36.786Z,11.15
2023-05-06T23:03:06.497Z,13.43
2023-05-06T23:05:36.588Z,12.98
2023-05-06T23:08:04.354Z,12.05
2023-05-06T23:10:32.016Z,11.73
2023-05-06T23:13:06.094Z,12.40
2023-05-06T23:15:37.219Z,12.85
2023-05-06T23:18:07.139Z,13.88
2023-05-06T23:20:34.676Z,12.57
2023-05-06T23:23:04.539Z,13.27
2023-05-06T23:25:31.946Z,12.93
2023-05-06T23:28:01.995Z,11.63
2023-05-06T23:30:29.898Z,12.68
2023-05-06T23:32:57.238Z,12.93
2023-05-06T23:35:25.538Z,10.70
2023-05-06T23:37:53.107Z,11.05
2023-05-06T23:40:20.708Z,11.60
2023-05-06T23:42:48.347Z,9.48
2023-05-06T23:45:15.502Z,9.25
2023-05-06T23:47:44.070Z,9.07
2023-05-06T23:50:11.962Z,8.88
2023-05-06T23:52:39.538Z,6.07
2023-05-06T23:55:07.228Z,8.38
2023-05-06T23:57:34.778Z,6.28
